Time;durP1;ratioP1;P1;durP2;ratioP2;P2;SDS_P1;SDS_P2;PMS_P1;PMS_P2;Temp;Humidity;BMP_temperature;BMP_pressure;BME280_temperature;BME280_humidity;BME280_pressure;Samples;Min_cycle;Max_cycle;Signal;HPM_P1;HPM_P2
2023/07/06 00:00:06;;;;;;;1.10;1.00;;;16.30;71.60;;;;;;5087358;28;21211;-77
2023/07/06 00:02:34;;;;;;;1.33;1.20;;;16.40;71.20;;;;;;5091923;28;21220;-77
2023/07/06 00:05:02;;;;;;;2.20;1.10;;;16.40;71.20;;;;;;5088068;28;20628;-77
2023/07/06 00:07:35;;;;;;;1.27;0.90;;;16.30;71.60;;;;;;5086939;28;20743;-77
2023/07/06 00:10:05;;;;;;;3.00;1.27;;;16.30;71.80;;;;;;5087993;28;20632;-77
2023/07/06 00:12:32;;;;;;;1.20;1.10;;;16.30;72.10;;;;;;5087809;28;20621;-77
2023/07/06 00:14:59;;;;;;;2.20;1.33;;;16.20;72.50;;;;;;5088144;28;20624;-77
2023/07/06 00:17:25;;;;;;;1.17;1.17;;;16.10;74.10;;;;;;5089038;28;20656;-77
2023/07/06 00:19:53;;;;;;;1.10;1.10;;;16.10;74.80;;;;;;5091185;28;21210;-77
2023/07/06 00:22:20;;;;;;;1.53;1.43;;;16.00;75.40;;;;;;5078698;28;20656;-77
2023/07/06 00:24:48;;;;;;;1.27;1.00;;;16.00;75.20;;;;;;5086782;28;20628;-77
2023/07/06 00:27:16;;;;;;;1.50;1.10;;;16.00;75.20;;;;;;5088017;28;20651;-77
2023/07/06 00:29:56;;;;;;;1.50;1.40;;;16.00;74.90;;;;;;5097120;28;20628;-77
2023/07/06 00:32:28;;;;;;;1.90;0.93;;;15.90;74.80;;;;;;5094745;28;21039;-77
2023/07/06 00:34:56;;;;;;;1.20;1.10;;;15.90;74.10;;;;;;5108724;28;20699;-77
2023/07/06 00:37:23;;;;;;;1.30;0.63;;;15.90;73.30;;;;;;5100600;28;20686;-77
2023/07/06 00:39:50;;;;;;;1.43;0.97;;;15.90;73.10;;;;;;5091816;28;20639;-77
2023/07/06 00:42:19;;;;;;;1.33;1.00;;;15.90;73.60;;;;;;5090860;28;20661;-77
2023/07/06 00:44:52;;;;;;;1.20;1.10;;;15.80;73.80;;;;;;5091041;28;20625;-77
2023/07/06 00:47:25;;;;;;;0.93;0.83;;;15.90;73.90;;;;;;5091164;28;20652;-77
2023/07/06 00:49:52;;;;;;;1.37;1.20;;;15.90;74.20;;;;;;5082686;28;21204;-77
2023/07/06 00:52:20;;;;;;;1.37;1.27;;;15.90;74.20;;;;;;5091201;28;20649;-77
2023/07/06 00:54:48;;;;;;;1.37;1.27;;;15.90;74.70;;;;;;5090657;28;20627;-77
2023/07/06 00:57:17;;;;;;;1.20;1.10;;;15.90;74.20;;;;;;5095294;28;21010;-77
2023/07/06 00:59:44;;;;;;;1.20;1.10;;;15.90;74.80;;;;;;5089843;28;20623;-77
2023/07/06 01:02:16;;;;;;;1.23;1.13;;;15.90;74.80;;;;;;5093310;28;20664;-77
2023/07/06 01:04:45;;;;;;;1.17;1.00;;;15.90;74.40;;;;;;5091542;28;20617;-77
2023/07/06 01:07:16;;;;;;;1.20;1.10;;;15.80;74.10;;;;;;5090224;28;21208;-77
2023/07/06 01:09:44;;;;;;;1.27;1.03;;;15.80;73.80;;;;;;5089774;28;20648;-76
2023/07/06 01:12:13;;;;;;;1.47;1.17;;;15.80;73.90;;;;;;5097973;28;20639;-77
2023/07/06 01:14:41;;;;;;;3.47;0.97;;;15.80;75.20;;;;;;5097505;28;20662;-77
2023/07/06 01:17:15;;;;;;;1.17;0.77;;;15.80;75.40;;;;;;5090382;28;20656;-77
2023/07/06 01:20:01;;;;;;;1.10;1.00;;;15.90;74.30;;;;;;5090546;28;20628;-77
2023/07/06 01:22:59;;;;;;;1.23;1.13;;;15.90;74.40;;;;;;5082519;28;20656;-77
2023/07/06 01:25:41;;;;;;;1.30;1.20;;;15.90;73.60;;;;;;5090106;28;20756;-77
2023/07/06 01:28:40;;;;;;;1.97;1.60;;;15.90;74.80;;;;;;5091339;28;21114;-77
2023/07/06 01:31:30;;;;;;;1.33;1.23;;;15.90;73.50;;;;;;5085547;28;20659;-77
2023/07/06 01:34:02;;;;;;;1.07;0.97;;;16.00;73.40;;;;;;5094711;28;20652;-77
2023/07/06 01:36:35;;;;;;;1.63;1.00;;;15.90;73.20;;;;;;5095313;28;21233;-77
2023/07/06 01:39:17;;;;;;;3.60;1.77;;;15.90;74.00;;;;;;5089181;28;20669;-77
2023/07/06 01:41:46;;;;;;;1.20;0.80;;;15.80;74.10;;;;;;5083703;28;20709;-77
2023/07/06 01:44:15;;;;;;;1.00;0.90;;;15.70;75.40;;;;;;5093876;28;20698;-76
2023/07/06 01:46:48;;;;;;;1.27;1.17;;;15.60;75.10;;;;;;5093309;28;20668;-76
2023/07/06 01:49:15;;;;;;;1.70;1.20;;;15.50;74.70;;;;;;5097764;28;20624;-76
2023/07/06 01:51:51;;;;;;;1.50;0.83;;;15.50;74.80;;;;;;5090592;28;21436;-76
2023/07/06 01:54:26;;;;;;;2.00;1.37;;;15.30;74.90;;;;;;5093520;28;20628;-76
2023/07/06 01:56:59;;;;;;;1.30;1.10;;;15.20;76.30;;;;;;5081358;28;20636;-76
2023/07/06 01:59:32;;;;;;;0.80;0.80;;;15.20;77.30;;;;;;5094901;28;20964;-76
2023/07/06 02:02:04;;;;;;;1.77;1.10;;;15.00;77.60;;;;;;5082118;28;20652;-76
2023/07/06 02:04:35;;;;;;;1.50;1.03;;;14.90;78.20;;;;;;5098243;28;20720;-76
2023/07/06 02:07:04;;;;;;;1.17;0.87;;;14.90;77.50;;;;;;5099725;28;20649;-76
2023/07/06 02:09:33;;;;;;;0.97;0.90;;;14.90;78.90;;;;;;5093319;28;20624;-76
2023/07/06 02:12:00;;;;;;;0.80;0.80;;;14.90;78.60;;;;;;5093250;28;20636;-76
2023/07/06 02:14:27;;;;;;;2.33;1.17;;;14.80;79.10;;;;;;5095202;28;20653;-76
2023/07/06 02:16:55;;;;;;;1.60;1.27;;;14.80;80.00;;;;;;5088913;28;20660;-76
2023/07/06 02:19:23;;;;;;;1.87;1.40;;;14.80;80.10;;;;;;5088727;28;20664;-76
2023/07/06 02:21:51;;;;;;;1.13;1.03;;;14.70;80.00;;;;;;5099167;28;20672;-76
2023/07/06 02:24:19;;;;;;;1.20;0.90;;;14.70;80.30;;;;;;5092871;28;20702;-76
2023/07/06 02:26:49;;;;;;;1.60;1.17;;;14.70;80.50;;;;;;5089747;28;20740;-76
2023/07/06 02:29:16;;;;;;;1.40;0.90;;;14.60;80.00;;;;;;5088171;28;20714;-77
2023/07/06 02:31:46;;;;;;;1.90;1.53;;;14.50;79.90;;;;;;5094408;28;21123;-77
2023/07/06 02:34:14;;;;;;;1.60;1.40;;;14.50;80.00;;;;;;5091507;28;20711;-77
2023/07/06 02:36:42;;;;;;;1.30;1.20;;;14.40;79.90;;;;;;5089338;28;20637;-77
2023/07/06 02:39:10;;;;;;;0.93;0.93;;;14.30;79.80;;;;;;5088173;28;20624;-77
2023/07/06 02:41:38;;;;;;;1.03;0.93;;;14.30;81.40;;;;;;5090697;28;21248;-77
2023/07/06 02:44:05;;;;;;;2.37;1.30;;;14.20;81.30;;;;;;5088462;28;20629;-77
2023/07/06 02:46:33;;;;;;;1.70;1.47;;;14.20;82.50;;;;;;5095019;28;20889;-77
2023/07/06 02:49:01;;;;;;;1.23;1.10;;;14.10;82.80;;;;;;5088380;28;21022;-77
2023/07/06 02:51:32;;;;;;;1.93;1.03;;;14.10;82.80;;;;;;5087561;28;20645;-77
2023/07/06 02:54:01;;;;;;;1.40;1.20;;;14.00;82.90;;;;;;5088576;28;21317;-77
2023/07/06 02:56:29;;;;;;;1.13;1.00;;;13.90;83.10;;;;;;5074761;28;20663;-77
2023/07/06 02:58:57;;;;;;;1.20;1.10;;;13.90;84.20;;;;;;5079788;28;20959;-77
2023/07/06 03:01:25;;;;;;;1.23;1.03;;;13.90;83.40;;;;;;5096459;28;20796;-77
2023/07/06 03:03:53;;;;;;;1.97;1.00;;;13.90;84.20;;;;;;5088622;28;20625;-77
2023/07/06 03:06:21;;;;;;;1.30;1.20;;;14.00;83.00;;;;;;5088456;28;20684;-76
2023/07/06 03:08:51;;;;;;;1.70;1.60;;;14.00;82.40;;;;;;5087692;28;20612;-76
2023/07/06 03:11:20;;;;;;;1.20;1.10;;;14.00;82.40;;;;;;5088025;28;20694;-76
2023/07/06 03:13:47;;;;;;;1.83;1.73;;;14.10;82.20;;;;;;5098567;28;20717;-77
2023/07/06 03:16:14;;;;;;;2.00;1.60;;;14.10;81.60;;;;;;5079601;28;20744;-77
2023/07/06 03:18:41;;;;;;;1.47;1.37;;;14.00;81.80;;;;;;5083440;28;20617;-77
2023/07/06 03:21:08;;;;;;;2.10;1.40;;;14.00;84.30;;;;;;5087198;28;21256;-77
2023/07/06 03:23:34;;;;;;;1.83;1.40;;;13.90;84.00;;;;;;5097806;28;20636;-77
2023/07/06 03:26:01;;;;;;;0.93;0.80;;;13.80;84.80;;;;;;5094164;28;20951;-77
2023/07/06 03:28:29;;;;;;;2.33;1.13;;;13.70;85.50;;;;;;5087772;28;20660;-77
2023/07/06 03:30:58;;;;;;;1.30;1.20;;;13.70;86.20;;;;;;5087113;28;20640;-77
2023/07/06 03:33:25;;;;;;;1.37;1.27;;;13.70;87.00;;;;;;5089092;28;20616;-77
2023/07/06 03:35:54;;;;;;;1.17;0.90;;;13.70;85.80;;;;;;5087437;28;20649;-77
2023/07/06 03:38:21;;;;;;;0.93;0.87;;;13.70;87.00;;;;;;5092821;28;20623;-77
2023/07/06 03:40:49;;;;;;;1.20;1.10;;;13.70;86.80;;;;;;5088433;28;20657;-77
2023/07/06 03:43:17;;;;;;;3.17;1.50;;;13.70;87.40;;;;;;5088176;28;20699;-77
2023/07/06 03:45:47;;;;;;;2.13;1.33;;;13.70;88.20;;;;;;5079622;28;20650;-77
2023/07/06 03:48:15;;;;;;;1.80;1.33;;;13.80;88.00;;;;;;5092694;28;20985;-77
2023/07/06 03:50:43;;;;;;;2.00;1.80;;;13.90;87.60;;;;;;5087791;28;21263;-77
2023/07/06 03:53:10;;;;;;;1.00;1.00;;;13.80;86.70;;;;;;5091920;28;20620;-77
2023/07/06 03:55:40;;;;;;;1.00;1.00;;;13.70;87.20;;;;;;5089763;28;20648;-76
2023/07/06 03:58:07;;;;;;;1.40;1.30;;;13.70;87.60;;;;;;5089926;28;20632;-77
2023/07/06 04:00:35;;;;;;;1.23;1.13;;;13.70;87.50;;;;;;5093570;28;21003;-77
2023/07/06 04:03:06;;;;;;;1.17;1.07;;;13.80;87.40;;;;;;5091320;28;20650;-77
2023/07/06 04:05:36;;;;;;;1.23;1.13;;;13.70;86.80;;;;;;5102419;28;20675;-77
2023/07/06 04:08:05;;;;;;;0.93;0.93;;;13.80;88.70;;;;;;5091969;28;20629;-77
2023/07/06 04:10:33;;;;;;;1.40;0.90;;;13.90;88.50;;;;;;5096470;28;20643;-77
2023/07/06 04:13:00;;;;;;;2.30;1.23;;;13.80;89.10;;;;;;5100095;28;20637;-77
2023/07/06 04:15:27;;;;;;;1.73;1.00;;;13.90;89.70;;;;;;5095658;28;21307;-76
2023/07/06 04:17:54;;;;;;;2.00;1.10;;;13.80;89.50;;;;;;5094483;28;20632;-77
2023/07/06 04:20:26;;;;;;;1.00;0.90;;;13.90;89.40;;;;;;5090316;28;20633;-77
2023/07/06 04:22:55;;;;;;;1.20;1.20;;;13.90;90.10;;;;;;5090827;28;20653;-77
2023/07/06 04:25:26;;;;;;;1.63;1.37;;;14.00;90.10;;;;;;5088250;28;20632;-77
2023/07/06 04:27:54;;;;;;;1.47;1.10;;;14.20;86.90;;;;;;5091167;28;20632;-76
2023/07/06 04:30:20;;;;;;;1.30;1.10;;;14.30;85.30;;;;;;5091018;28;20715;-77
2023/07/06 04:32:49;;;;;;;1.70;1.60;;;14.50;85.50;;;;;;5091674;28;20637;-77
2023/07/06 04:35:17;;;;;;;2.37;1.50;;;14.50;86.30;;;;;;5092481;28;20620;-79
2023/07/06 04:37:46;;;;;;;1.40;1.30;;;14.50;87.40;;;;;;5096720;28;20643;-78
2023/07/06 04:40:17;;;;;;;1.30;1.20;;;14.50;87.60;;;;;;5094375;28;20965;-77
2023/07/06 04:42:46;;;;;;;1.85;1.50;;;14.50;87.70;;;;;;5091541;28;20749;-78
2023/07/06 04:45:13;;;;;;;1.33;1.23;;;14.50;87.00;;;;;;5091312;28;20581;-76
2023/07/06 04:47:40;;;;;;;1.00;1.00;;;14.40;87.70;;;;;;5095010;28;20632;-77
2023/07/06 04:50:09;;;;;;;1.83;1.73;;;14.50;88.00;;;;;;5095448;28;20625;-76
2023/07/06 04:52:37;;;;;;;1.30;1.20;;;14.60;88.30;;;;;;5090683;28;21185;-76
2023/07/06 04:55:06;;;;;;;1.17;1.07;;;14.80;88.40;;;;;;5100406;28;20945;-76
2023/07/06 04:57:33;;;;;;;1.10;1.10;;;14.90;86.30;;;;;;5098700;28;20625;-76
2023/07/06 05:00:11;;;;;;;1.23;1.10;;;15.10;84.40;;;;;;5096179;28;20624;-76
2023/07/06 05:02:38;;;;;;;1.60;1.27;;;15.20;83.90;;;;;;5093441;28;20654;-75
2023/07/06 05:05:05;;;;;;;1.40;1.10;;;15.30;83.70;;;;;;5090447;28;20613;-74
2023/07/06 05:07:32;;;;;;;2.57;1.70;;;15.40;83.70;;;;;;5102877;28;20728;-75
2023/07/06 05:09:59;;;;;;;1.13;1.00;;;15.50;83.50;;;;;;5090995;28;20628;-75
2023/07/06 05:12:27;;;;;;;1.20;1.10;;;15.60;83.60;;;;;;5092709;28;20640;-73
2023/07/06 05:14:54;;;;;;;2.07;1.60;;;15.60;82.80;;;;;;5097191;28;20627;-73
2023/07/06 05:17:20;;;;;;;3.27;1.40;;;15.70;82.70;;;;;;5096694;28;20653;-73
2023/07/06 05:19:47;;;;;;;1.10;1.10;;;15.80;81.90;;;;;;5090684;28;20629;-74
2023/07/06 05:22:18;;;;;;;1.30;1.20;;;16.00;82.20;;;;;;5089893;28;21463;-75
2023/07/06 05:24:45;;;;;;;1.43;1.30;;;16.00;81.00;;;;;;5093092;28;20731;-73
2023/07/06 05:27:12;;;;;;;0.87;0.87;;;16.10;81.50;;;;;;5091840;28;20655;-74
2023/07/06 05:29:40;;;;;;;1.70;1.40;;;16.10;80.10;;;;;;5089288;28;20727;-75
2023/07/06 05:32:09;;;;;;;1.53;1.43;;;16.20;80.50;;;;;;5089656;28;21216;-75
2023/07/06 05:34:36;;;;;;;2.60;1.67;;;16.30;81.00;;;;;;5083490;28;21169;-75
2023/07/06 05:37:03;;;;;;;2.50;2.07;;;16.50;80.80;;;;;;5092169;28;20655;-75
2023/07/06 05:39:31;;;;;;;1.47;1.37;;;16.50;80.00;;;;;;5090623;28;20728;-75
2023/07/06 05:41:57;;;;;;;5.20;1.57;;;16.40;80.30;;;;;;5097345;28;20661;-76
2023/07/06 05:44:25;;;;;;;1.30;1.20;;;16.40;80.80;;;;;;5089627;28;20632;-75
2023/07/06 05:46:53;;;;;;;1.47;1.23;;;16.50;80.10;;;;;;5093132;28;20647;-75
2023/07/06 05:49:20;;;;;;;1.70;1.40;;;16.30;78.10;;;;;;5091611;28;20641;-75
2023/07/06 05:51:47;;;;;;;2.07;1.87;;;16.50;78.50;;;;;;5083920;28;20663;-76
2023/07/06 05:54:13;;;;;;;1.77;1.10;;;16.60;78.30;;;;;;5084720;28;20842;-75
2023/07/06 05:56:41;;;;;;;1.10;1.03;;;16.50;79.80;;;;;;5089745;28;20661;-75
2023/07/06 05:59:08;;;;;;;1.40;1.30;;;16.70;79.10;;;;;;5095488;28;20632;-75
2023/07/06 06:01:36;;;;;;;1.73;1.63;;;16.80;78.70;;;;;;5092502;28;20652;-76
2023/07/06 06:04:05;;;;;;;2.00;1.83;;;17.00;78.80;;;;;;5091064;28;21305;-75
2023/07/06 06:06:47;;;;;;;1.37;1.27;;;17.10;78.00;;;;;;5086141;28;20648;-75
2023/07/06 06:09:14;;;;;;;1.27;1.17;;;17.30;77.90;;;;;;5081355;28;21180;-75
2023/07/06 06:11:40;;;;;;;1.67;1.57;;;17.40;76.90;;;;;;5092626;28;20642;-75
2023/07/06 06:14:07;;;;;;;2.33;1.70;;;17.50;76.80;;;;;;5086920;28;20625;-75
2023/07/06 06:16:35;;;;;;;3.13;1.40;;;17.50;76.80;;;;;;5088380;28;21257;-75
2023/07/06 06:19:04;;;;;;;1.73;1.63;;;17.60;77.40;;;;;;5089456;28;20635;-75
2023/07/06 06:21:32;;;;;;;1.33;1.23;;;17.50;76.50;;;;;;5087653;28;20699;-75
2023/07/06 06:23:59;;;;;;;2.60;2.00;;;17.60;76.60;;;;;;5089352;28;21263;-75
2023/07/06 06:26:26;;;;;;;1.40;1.20;;;17.50;76.60;;;;;;5089498;28;21101;-75
2023/07/06 06:28:53;;;;;;;1.30;1.20;;;17.30;75.70;;;;;;5094307;28;20630;-75
2023/07/06 06:31:21;;;;;;;1.40;1.13;;;17.40;74.80;;;;;;5089116;28;20750;-75
2023/07/06 06:33:49;;;;;;;1.03;0.93;;;17.40;74.60;;;;;;5082364;28;20625;-75
2023/07/06 06:36:18;;;;;;;1.10;0.90;;;17.40;74.30;;;;;;5086660;28;20651;-76
2023/07/06 06:38:45;;;;;;;1.53;1.23;;;17.40;72.10;;;;;;5087845;28;20631;-74
2023/07/06 06:41:13;;;;;;;1.67;1.27;;;17.50;72.70;;;;;;5087005;28;20645;-75
2023/07/06 06:43:41;;;;;;;1.53;1.27;;;17.60;72.50;;;;;;5093562;28;20660;-75
2023/07/06 06:46:08;;;;;;;1.13;1.03;;;17.80;72.40;;;;;;5088427;28;20647;-75
2023/07/06 06:48:35;;;;;;;1.53;1.30;;;17.90;72.10;;;;;;5087877;28;20625;-74
2023/07/06 06:51:02;;;;;;;1.03;0.93;;;17.90;72.20;;;;;;5090905;28;21235;-75
2023/07/06 06:53:31;;;;;;;1.10;1.00;;;17.90;72.20;;;;;;5088258;28;20629;-75
2023/07/06 06:55:58;;;;;;;1.20;1.10;;;17.90;70.00;;;;;;5089345;28;20996;-74
2023/07/06 06:58:25;;;;;;;2.07;1.20;;;18.00;70.00;;;;;;5096679;28;20636;-74
2023/07/06 07:00:58;;;;;;;1.63;1.40;;;18.00;69.60;;;;;;5091338;28;21240;-75
2023/07/06 07:03:27;;;;;;;1.10;1.10;;;18.10;69.30;;;;;;5082352;28;20653;-75
2023/07/06 07:06:00;;;;;;;1.43;1.33;;;18.10;70.20;;;;;;5091863;28;20644;-74
2023/07/06 07:08:27;;;;;;;1.40;1.30;;;18.20;71.00;;;;;;5095630;28;20724;-75
2023/07/06 07:10:57;;;;;;;2.23;1.43;;;18.20;69.50;;;;;;5087318;28;21138;-75
2023/07/06 07:13:24;;;;;;;0.90;0.90;;;18.40;69.70;;;;;;5094626;28;20617;-74
2023/07/06 07:15:51;;;;;;;1.40;1.30;;;18.40;69.60;;;;;;5087379;28;21270;-74
2023/07/06 07:18:20;;;;;;;1.50;1.40;;;18.40;68.40;;;;;;5088000;28;21004;-75
2023/07/06 07:20:51;;;;;;;1.40;1.30;;;18.40;68.50;;;;;;5090606;28;20655;-75
2023/07/06 07:23:18;;;;;;;1.57;1.40;;;18.60;68.50;;;;;;5089558;28;21256;-75
2023/07/06 07:25:45;;;;;;;3.40;3.10;;;18.70;68.60;;;;;;5087463;28;20648;-74
2023/07/06 07:28:16;;;;;;;1.47;1.37;;;18.70;68.40;;;;;;5094617;28;20630;-74
2023/07/06 07:30:43;;;;;;;1.80;1.53;;;18.80;67.30;;;;;;5086857;28;21216;-74
2023/07/06 07:33:09;;;;;;;0.77;0.77;;;18.90;67.50;;;;;;5088815;28;20976;-74
2023/07/06 07:35:43;;;;;;;1.00;0.97;;;19.00;67.80;;;;;;5086527;28;20644;-75
2023/07/06 07:38:27;;;;;;;1.30;1.20;;;19.10;66.00;;;;;;5085788;28;20664;-76
2023/07/06 07:44:21;;;;;;;2.07;1.40;;;18.90;65.50;;;;;;5083712;28;20648;-75
2023/07/06 07:46:59;;;;;;;1.20;1.10;;;19.10;66.20;;;;;;5084605;28;20687;-75
2023/07/06 07:49:25;;;;;;;2.87;1.40;;;19.40;63.70;;;;;;5083627;28;20648;-74
2023/07/06 07:52:01;;;;;;;1.00;0.93;;;19.50;65.30;;;;;;5084049;28;20659;-75
2023/07/06 07:54:31;;;;;;;1.40;1.30;;;19.80;64.80;;;;;;5087777;28;20611;-74
2023/07/06 07:56:58;;;;;;;1.90;1.23;;;20.00;62.70;;;;;;5084479;28;20669;-74
2023/07/06 07:59:38;;;;;;;1.73;1.63;;;20.20;63.00;;;;;;5081271;28;20719;-74
2023/07/06 08:02:09;;;;;;;1.83;1.50;;;20.30;61.70;;;;;;5080632;28;20641;-73
2023/07/06 08:05:11;;;;;;;1.53;1.33;;;20.30;62.80;;;;;;5083496;28;20636;-75
2023/07/06 08:11:16;;;;;;;1.30;1.20;;;20.70;59.90;;;;;;4995739;28;20752;-76
2023/07/06 08:13:56;;;;;;;2.93;1.43;;;20.90;59.20;;;;;;5089145;28;20629;-75
2023/07/06 08:16:25;;;;;;;1.30;1.20;;;21.10;59.20;;;;;;5084551;28;20756;-74
2023/07/06 08:19:05;;;;;;;1.30;1.20;;;20.90;59.60;;;;;;5087560;28;20635;-75
2023/07/06 08:21:35;;;;;;;1.70;1.60;;;20.80;59.60;;;;;;5089154;28;20647;-75
2023/07/06 08:24:03;;;;;;;7.90;1.73;;;20.90;60.50;;;;;;5086801;28;20665;-74
2023/07/06 08:26:31;;;;;;;1.57;1.33;;;21.20;59.60;;;;;;5086601;28;20640;-74
2023/07/06 08:28:58;;;;;;;1.20;1.10;;;21.10;58.60;;;;;;5087351;28;20945;-74
2023/07/06 08:31:26;;;;;;;1.90;1.40;;;21.00;59.30;;;;;;5086331;28;20736;-76
2023/07/06 08:33:53;;;;;;;1.57;1.47;;;21.30;60.50;;;;;;5084155;28;20639;-75
2023/07/06 08:36:23;;;;;;;1.50;1.40;;;21.70;60.00;;;;;;5089419;28;20641;-75
2023/07/06 08:38:49;;;;;;;1.67;1.20;;;22.00;58.70;;;;;;5092457;28;20613;-75
2023/07/06 08:41:26;;;;;;;1.83;1.30;;;21.70;58.30;;;;;;5089331;28;20650;-76
2023/07/06 08:43:54;;;;;;;1.77;1.37;;;21.50;58.60;;;;;;5089924;28;20652;-75
2023/07/06 08:46:21;;;;;;;1.70;1.60;;;21.20;58.70;;;;;;5086190;28;20648;-75
2023/07/06 08:48:53;;;;;;;1.90;1.60;;;21.20;59.10;;;;;;5094752;28;21274;-75
2023/07/06 08:51:25;;;;;;;2.20;1.60;;;21.30;60.30;;;;;;5090408;28;21218;-75
2023/07/06 08:54:00;;;;;;;1.47;1.37;;;21.40;60.80;;;;;;5086597;28;20656;-75
2023/07/06 08:56:29;;;;;;;1.03;1.03;;;21.50;58.30;;;;;;5095110;28;20659;-75
2023/07/06 08:58:58;;;;;;;1.63;1.50;;;21.50;58.40;;;;;;5086619;28;20625;-75
2023/07/06 09:01:26;;;;;;;1.73;1.57;;;21.50;58.60;;;;;;5092593;28;20668;-75
2023/07/06 09:03:59;;;;;;;1.20;1.10;;;21.40;58.10;;;;;;5091498;28;20656;-75
2023/07/06 09:06:28;;;;;;;1.67;1.40;;;21.30;58.20;;;;;;5093516;28;20732;-76
2023/07/06 09:09:03;;;;;;;2.73;1.60;;;21.00;56.80;;;;;;5098282;28;20628;-75
2023/07/06 09:11:31;;;;;;;1.93;1.50;;;20.80;58.60;;;;;;5095084;28;20636;-75
2023/07/06 09:14:00;;;;;;;1.57;1.47;;;21.20;58.10;;;;;;5090306;28;20624;-75
2023/07/06 09:16:27;;;;;;;1.33;1.23;;;21.40;58.40;;;;;;5089881;28;20651;-75
2023/07/06 09:18:56;;;;;;;1.63;1.47;;;21.70;57.10;;;;;;5089662;28;20633;-76
2023/07/06 09:21:25;;;;;;;1.53;1.23;;;22.10;56.00;;;;;;5090105;28;20759;-75
2023/07/06 09:23:52;;;;;;;1.30;1.20;;;22.50;57.20;;;;;;5098915;28;20758;-75
2023/07/06 09:26:23;;;;;;;1.27;1.13;;;22.80;55.70;;;;;;5090159;28;20645;-75
2023/07/06 09:28:51;;;;;;;1.43;1.33;;;23.20;56.10;;;;;;5096901;28;20629;-75
2023/07/06 09:31:20;;;;;;;2.23;1.47;;;23.40;54.60;;;;;;5091387;28;20663;-75
2023/07/06 09:33:49;;;;;;;2.27;1.60;;;23.50;54.30;;;;;;5091153;28;20649;-75
2023/07/06 09:36:22;;;;;;;2.40;1.70;;;23.60;53.70;;;;;;5097241;28;20654;-75
2023/07/06 09:38:49;;;;;;;1.33;1.17;;;23.60;52.90;;;;;;5090971;28;20663;-75
2023/07/06 09:41:20;;;;;;;1.77;1.40;;;23.80;52.90;;;;;;5098136;28;20689;-75
2023/07/06 09:43:49;;;;;;;2.20;1.60;;;24.00;53.00;;;;;;5091597;28;20678;-75
2023/07/06 09:46:16;;;;;;;2.00;1.23;;;23.90;52.30;;;;;;5098891;28;20661;-75
2023/07/06 09:48:43;;;;;;;1.40;1.30;;;24.10;51.40;;;;;;5087678;28;20638;-75
2023/07/06 09:51:15;;;;;;;1.97;1.60;;;24.00;50.80;;;;;;5096677;28;20997;-75
2023/07/06 09:53:48;;;;;;;1.90;1.27;;;24.00;52.60;;;;;;5101168;28;20621;-75
2023/07/06 09:56:15;;;;;;;1.57;1.47;;;23.80;51.70;;;;;;5089758;28;20776;-75
2023/07/06 09:58:54;;;;;;;1.40;1.27;;;23.40;50.20;;;;;;5089229;28;20620;-75
2023/07/06 10:01:34;;;;;;;1.57;1.37;;;23.00;51.40;;;;;;5090277;28;20648;-75
2023/07/06 10:04:16;;;;;;;2.03;0.97;;;22.60;51.90;;;;;;5085708;28;20656;-75
2023/07/06 10:06:57;;;;;;;1.60;1.50;;;22.60;52.70;;;;;;5091899;28;20650;-75
2023/07/06 10:09:29;;;;;;;2.03;1.80;;;22.70;53.20;;;;;;5089643;28;20640;-75
2023/07/06 10:12:06;;;;;;;1.33;1.20;;;22.70;51.80;;;;;;5093936;28;21226;-75
2023/07/06 10:14:37;;;;;;;1.37;1.30;;;22.40;51.50;;;;;;5095785;28;20669;-75
2023/07/06 10:17:14;;;;;;;1.60;1.50;;;22.20;52.50;;;;;;5092862;28;20646;-75
2023/07/06 10:19:51;;;;;;;1.57;1.47;;;21.70;51.50;;;;;;5097904;28;20635;-75
2023/07/06 10:22:26;;;;;;;1.30;1.20;;;21.60;53.20;;;;;;5080200;28;20664;-76
2023/07/06 10:25:00;;;;;;;2.40;1.17;;;21.70;53.60;;;;;;5087974;28;20670;-75
2023/07/06 10:27:33;;;;;;;1.33;1.23;;;21.90;54.30;;;;;;5081469;28;20624;-75
2023/07/06 10:30:05;;;;;;;1.60;1.50;;;22.20;54.60;;;;;;5090243;28;20698;-75
2023/07/06 10:32:38;;;;;;;2.53;1.97;;;22.70;52.60;;;;;;5079951;28;20650;-75
2023/07/06 10:35:11;;;;;;;1.80;1.70;;;22.90;53.10;;;;;;5087774;28;20616;-76
2023/07/06 10:37:42;;;;;;;1.90;1.50;;;22.90;51.30;;;;;;5082877;28;20663;-76
2023/07/06 10:40:19;;;;;;;3.20;1.90;;;22.40;51.10;;;;;;5087403;28;20638;-75
2023/07/06 10:42:52;;;;;;;1.57;1.40;;;22.50;53.80;;;;;;5080919;28;20635;-75
2023/07/06 10:45:43;;;;;;;1.70;1.43;;;22.90;54.60;;;;;;5088248;28;20648;-75
2023/07/06 10:48:15;;;;;;;2.00;1.70;;;23.50;52.50;;;;;;5088451;28;20639;-75
2023/07/06 10:50:49;;;;;;;1.50;1.30;;;23.50;51.40;;;;;;5087900;28;20653;-75
2023/07/06 10:53:37;;;;;;;1.40;1.30;;;24.00;52.90;;;;;;5087914;28;20727;-75
2023/07/06 10:56:17;;;;;;;1.53;1.37;;;24.40;51.40;;;;;;5082099;28;21074;-75
2023/07/06 10:58:54;;;;;;;1.30;1.20;;;24.60;49.30;;;;;;5086401;28;20713;-75
2023/07/06 11:01:23;;;;;;;1.73;1.63;;;24.80;48.60;;;;;;5087472;28;20685;-75
2023/07/06 11:03:50;;;;;;;1.70;1.43;;;24.80;50.20;;;;;;5085478;28;20655;-75
2023/07/06 11:06:38;;;;;;;2.43;1.77;;;24.40;48.50;;;;;;5087935;28;20702;-75
2023/07/06 11:09:14;;;;;;;2.10;1.73;;;24.40;50.50;;;;;;5079206;28;20634;-75
2023/07/06 11:12:03;;;;;;;2.77;1.83;;;24.80;51.20;;;;;;5088201;28;20654;-75
2023/07/06 11:14:39;;;;;;;1.20;1.10;;;25.40;50.70;;;;;;5082399;28;21174;-75
2023/07/06 11:17:15;;;;;;;1.80;1.70;;;25.90;49.00;;;;;;5088211;28;20651;-75
2023/07/06 11:19:48;;;;;;;2.43;1.77;;;25.90;49.20;;;;;;5087411;28;20839;-75
2023/07/06 11:22:20;;;;;;;1.73;1.10;;;25.50;48.10;;;;;;5083626;28;21059;-75
2023/07/06 11:24:49;;;;;;;1.37;1.30;;;25.10;48.90;;;;;;5092536;28;20662;-75
2023/07/06 11:27:24;;;;;;;1.70;1.40;;;25.30;49.00;;;;;;5093359;28;21004;-75
2023/07/06 11:29:54;;;;;;;1.30;1.20;;;26.10;48.30;;;;;;5091243;28;20758;-75
2023/07/06 11:32:29;;;;;;;2.33;1.80;;;26.80;48.50;;;;;;5091544;28;20651;-75
2023/07/06 11:35:24;;;;;;;1.43;1.33;;;27.40;45.70;;;;;;5087425;28;20638;-75
2023/07/06 11:38:15;;;;;;;1.40;1.30;;;27.60;45.90;;;;;;5082721;28;20648;-75
2023/07/06 11:40:55;;;;;;;1.47;1.13;;;27.40;45.50;;;;;;5079209;28;21013;-75
2023/07/06 11:43:38;;;;;;;1.57;1.47;;;28.10;44.90;;;;;;5093300;28;20712;-74
2023/07/06 11:46:20;;;;;;;2.10;1.80;;;28.70;44.30;;;;;;5098735;28;20643;-74
2023/07/06 11:48:56;;;;;;;0.90;0.90;;;29.10;43.00;;;;;;5084931;28;20631;-74
2023/07/06 11:51:23;;;;;;;1.43;1.20;;;29.40;43.60;;;;;;5093556;28;20663;-74
2023/07/06 11:53:57;;;;;;;1.90;1.80;;;29.10;43.50;;;;;;5093459;28;21049;-75
2023/07/06 11:56:39;;;;;;;1.67;1.57;;;27.80;44.70;;;;;;5088931;28;20655;-75
2023/07/06 11:59:26;;;;;;;1.57;1.47;;;27.70;44.20;;;;;;5084297;28;21204;-75
2023/07/06 12:01:57;;;;;;;4.23;1.90;;;26.60;44.60;;;;;;5094855;28;20648;-75
2023/07/06 12:04:26;;;;;;;2.03;1.70;;;26.50;46.00;;;;;;5089496;28;20652;-75
2023/07/06 12:06:54;;;;;;;4.13;1.60;;;26.30;45.50;;;;;;5091225;28;20651;-75
2023/07/06 12:09:23;;;;;;;1.63;1.53;;;26.20;46.20;;;;;;5086949;28;20632;-75
2023/07/06 12:12:01;;;;;;;1.47;1.37;;;25.90;45.80;;;;;;5087360;28;20644;-75
2023/07/06 12:14:30;;;;;;;2.27;1.57;;;25.50;47.00;;;;;;5087034;28;21121;-74
2023/07/06 12:16:59;;;;;;;1.90;1.80;;;27.10;47.50;;;;;;5090316;28;20689;-75
2023/07/06 12:19:28;;;;;;;1.60;1.50;;;29.00;45.80;;;;;;5087393;28;20742;-75
2023/07/06 12:21:56;;;;;;;2.40;1.70;;;30.90;43.60;;;;;;5089079;28;20648;-75
2023/07/06 12:24:25;;;;;;;1.83;1.43;;;31.80;40.30;;;;;;5095601;28;20664;-75
2023/07/06 12:26:53;;;;;;;1.57;1.47;;;32.30;40.20;;;;;;5093245;28;20655;-76
2023/07/06 12:29:23;;;;;;;1.60;1.30;;;33.00;38.20;;;;;;5088697;28;20716;-76
2023/07/06 12:31:52;;;;;;;1.33;1.23;;;33.40;37.70;;;;;;5092245;28;21176;-74
2023/07/06 12:34:24;;;;;;;1.83;1.70;;;33.70;37.40;;;;;;5089670;28;21183;-75
2023/07/06 12:36:56;;;;;;;1.60;1.50;;;34.00;38.00;;;;;;5092468;28;20708;-75
2023/07/06 12:39:23;;;;;;;1.70;1.60;;;34.80;35.60;;;;;;5088934;28;20641;-75
2023/07/06 12:41:53;;;;;;;1.47;1.37;;;35.50;34.50;;;;;;5090489;28;20336;-75
2023/07/06 12:44:24;;;;;;;1.37;1.20;;;35.80;35.40;;;;;;5092701;28;20308;-76
2023/07/06 12:46:54;;;;;;;2.30;1.47;;;35.30;35.80;;;;;;5090737;28;20686;-75
2023/07/06 12:49:22;;;;;;;1.60;1.50;;;34.80;35.60;;;;;;5091160;28;20204;-75
2023/07/06 12:51:54;;;;;;;1.57;1.47;;;35.00;35.10;;;;;;5090893;28;20229;-75
2023/07/06 12:54:23;;;;;;;1.80;1.70;;;34.90;34.40;;;;;;5099018;28;20221;-75
2023/07/06 12:56:59;;;;;;;1.60;1.30;;;35.10;33.60;;;;;;5087476;28;20328;-75
2023/07/06 12:59:31;;;;;;;1.47;1.37;;;33.90;33.20;;;;;;5087126;28;20569;-75
2023/07/06 13:02:00;;;;;;;2.30;2.10;;;32.60;34.70;;;;;;5097989;28;20682;-75
2023/07/06 13:04:43;;;;;;;1.63;1.40;;;31.30;35.70;;;;;;5094354;28;20658;-75
2023/07/06 13:07:10;;;;;;;2.43;1.43;;;30.30;37.30;;;;;;5090235;28;21042;-74
2023/07/06 13:09:37;;;;;;;2.70;1.97;;;30.00;37.70;;;;;;5098492;28;20641;-75
2023/07/06 13:12:09;;;;;;;1.60;1.50;;;30.20;39.50;;;;;;5088395;28;20651;-75